Urb Mifedo, Puerto Rico
Current Conditions -  °F | °C
As of 3:50 PM on Wednesday 26 Nov 2014 (Local Time) from TJBQ Reporting Station
Scattered Clouds Scattered Clouds  
Wind Chill: 82°   Ceiling: Unl
Heat Index: 87°   Visibility: 10mi
Dew Point: 72°   Wind: 17mph
Humidity: 70%   Direction: 90°E
Pressure: 29.98"   Gusts: 28mph
Location:  18.0306°N, 66.8507°W
Report Text: TJBQ 261950Z 09015G24KT 10SM SCT030 28/22 A2998 RMK RWY08 ATIS O
Loading
Personal Weather Stations






























Interactive Weather Map New forecast layout! Learn more

10-Day Weather Forecast

Advertisements
Track Severe Weather on mobile